Warren, MN (56762)

8:56 PM CDT on July 27, 2016 (GMT -0500)
Grand Forks International | | Change Station

Elev 843 ft 47.95 °N, 97.18 °W | Updated 3 minutes ago

Mostly Cloudy
Mostly Cloudy
71 °F
Feels Like 71 °F
N
12
Wind Variable Wind from NNW

Today
High -- | Low -- °F
--% Chance of Precip.
Yesterday
High -- | Low -- °F
Precip. -- in
Pressure 30.06 in
Visibility 10.0 miles
Clouds Few 4900 ft
Mostly Cloudy 6500 ft
Mostly Cloudy 25000 ft
Dew Point 58 °F
Humidity 63%
Rainfall 0.02 in
Snow Depth Not available.
5:56 AM 9:09 PM
Last Quarter, 37% visible
METAR KGFK 280153Z 34010KT 10SM FEW049 BKN065 BKN250 22/14 A3006 RMK AO2 SLP179 T02170144
Pressure 30.06 in
Visibility 10.0 miles
Clouds Few 4900 ft
Mostly Cloudy 6500 ft
Mostly Cloudy 25000 ft
Dew Point 58 °F
Humidity 63%
Rainfall 0.02 in
Snow Depth Not available.
5:56 AM 9:09 PM
Last Quarter, 37% visible
METAR KGFK 280153Z 34010KT 10SM FEW049 BKN065 BKN250 22/14 A3006 RMK AO2 SLP179 T02170144

10-Day Weather Forecast

Almanac

Astronomy

Jul. 27, 2016 Rise Set
Actual Time
Civil Twilight
Nautical Twilight
Astronomical Twilight
Moon
Length of Visible Light
Length of Day
Tomorrow will be .
, % of the Moon is Illuminated

Today's Extremes

State Highs State Lows

Community

WunderPhotos

Upload Photos

1,928,005 photos uploaded!

WunderBlog® & News

Nearby

Air Quality

  Air Quality AQ Index Pollutant
Not available.

Snow Depth

Station Depth Elevation

Earthquake Activity

City Distance Mag. Time & Date
Minimum magnitude displayed is 2.5.

Coastal Water Temperatures

Place Temperature

Stations

Nearby Weather Stations

Station Location Temp. Windchill Dew Point Humidity Wind Precip. Elev Updated Type
                   

Watches & Warnings

There are currently no watches in effect.